Time;durP1;ratioP1;P1;durP2;ratioP2;P2;SDS_P1;SDS_P2;PMS_P1;PMS_P2;Temp;Humidity;BMP_temperature;BMP_pressure;BME280_temperature;BME280_humidity;BME280_pressure;Samples;Min_cycle;Max_cycle;Signal;HPM_P1;HPM_P2
2024/01/11 00:00:29;;;;;;;7.15;5.03;;;;;;;;;;5051372;27;99593;-73
2024/01/11 00:02:56;;;;;;;10.20;5.88;;;;;;;;;;5055761;27;99980;-73
2024/01/11 00:05:22;;;;;;;10.18;5.47;;;;;;;;;;5052936;27;99128;-73
2024/01/11 00:07:49;;;;;;;12.82;7.18;;;;;;;;;;5055470;27;99437;-73
2024/01/11 00:10:16;;;;;;;10.38;5.97;;;;;;;;;;5057883;27;100349;-73
2024/01/11 00:12:42;;;;;;;5.75;5.22;;;;;;;;;;5052417;27;99745;-73
2024/01/11 00:15:09;;;;;;;6.57;5.28;;;;;;;;;;5057532;27;100015;-73
2024/01/11 00:17:36;;;;;;;9.35;5.40;;;;;;;;;;5057156;27;98751;-73
2024/01/11 00:20:03;;;;;;;5.45;4.25;;;;;;;;;;5054482;27;99291;-73
2024/01/11 00:22:29;;;;;;;9.38;6.15;;;;;;;;;;5053859;27;100028;-73
2024/01/11 00:24:56;;;;;;;6.03;5.03;;;;;;;;;;5053884;27;98984;-73
2024/01/11 00:27:22;;;;;;;11.73;7.20;;;;;;;;;;5055562;27;99777;-73
2024/01/11 00:29:49;;;;;;;4.38;3.38;;;;;;;;;;5053297;27;99783;-73
2024/01/11 00:32:15;;;;;;;5.88;5.25;;;;;;;;;;5060792;27;98952;-74
2024/01/11 00:34:42;;;;;;;5.93;5.40;;;;;;;;;;5050943;27;100182;-73
2024/01/11 00:37:08;;;;;;;5.18;4.68;;;;;;;;;;5052484;27;99083;-73
2024/01/11 00:39:34;;;;;;;7.75;5.93;;;;;;;;;;5053740;27;100120;-73
2024/01/11 00:42:01;;;;;;;10.07;7.78;;;;;;;;;;5056860;27;100445;-73
2024/01/11 00:44:28;;;;;;;8.65;6.63;;;;;;;;;;5050941;27;99856;-73
2024/01/11 00:46:54;;;;;;;10.93;6.57;;;;;;;;;;5053195;27;99630;-73
2024/01/11 00:49:21;;;;;;;7.72;6.72;;;;;;;;;;5053705;27;99864;-74
2024/01/11 00:51:48;;;;;;;5.97;5.38;;;;;;;;;;5048052;27;99495;-73
2024/01/11 00:54:14;;;;;;;10.13;7.13;;;;;;;;;;5059432;27;99391;-73
2024/01/11 00:56:41;;;;;;;13.98;5.32;;;;;;;;;;5054904;27;98279;-73
2024/01/11 00:59:07;;;;;;;11.50;6.47;;;;;;;;;;5052353;27;98715;-73
2024/01/11 01:01:34;;;;;;;13.82;7.13;;;;;;;;;;5059170;27;100261;-73
2024/01/11 01:04:00;;;;;;;10.98;6.65;;;;;;;;;;5053036;27;99767;-73
2024/01/11 01:06:27;;;;;;;4.90;3.95;;;;;;;;;;5051866;27;99752;-72
2024/01/11 01:08:54;;;;;;;5.47;4.97;;;;;;;;;;5052820;27;99344;-73
2024/01/11 01:11:20;;;;;;;7.15;5.45;;;;;;;;;;5052627;27;99541;-73
2024/01/11 01:13:47;;;;;;;9.88;6.95;;;;;;;;;;5053841;27;99918;-74
2024/01/11 01:16:14;;;;;;;8.18;7.25;;;;;;;;;;5055949;27;99954;-73
2024/01/11 01:18:41;;;;;;;8.52;6.55;;;;;;;;;;5054287;27;100945;-73
2024/01/11 01:21:07;;;;;;;11.88;6.40;;;;;;;;;;5053520;27;99000;-73
2024/01/11 01:23:34;;;;;;;13.95;7.00;;;;;;;;;;5056897;27;99750;-74
2024/01/11 01:26:00;;;;;;;7.60;5.60;;;;;;;;;;5056074;27;99746;-73
2024/01/11 01:28:29;;;;;;;14.75;6.78;;;;;;;;;;5056825;27;100284;-73
2024/01/11 01:30:55;;;;;;;10.35;6.95;;;;;;;;;;5056688;27;98927;-73
2024/01/11 01:33:22;;;;;;;6.85;6.13;;;;;;;;;;5058316;27;99932;-73
2024/01/11 01:35:49;;;;;;;7.80;7.03;;;;;;;;;;5055338;27;100150;-73
2024/01/11 01:38:17;;;;;;;9.70;7.18;;;;;;;;;;5060769;27;98569;-73
2024/01/11 01:40:43;;;;;;;7.88;5.90;;;;;;;;;;5057347;27;100141;-74
2024/01/11 01:43:10;;;;;;;15.95;8.02;;;;;;;;;;5058525;27;99167;-74
2024/01/11 01:45:36;;;;;;;9.98;6.35;;;;;;;;;;5055933;27;99617;-74
2024/01/11 01:48:04;;;;;;;12.55;6.45;;;;;;;;;;5059167;27;100072;-73
2024/01/11 01:50:31;;;;;;;7.63;6.10;;;;;;;;;;5054366;27;98374;-73
2024/01/11 01:52:57;;;;;;;9.68;7.05;;;;;;;;;;5056066;27;99996;-73
2024/01/11 01:55:25;;;;;;;11.93;7.07;;;;;;;;;;5056998;27;100155;-73
2024/01/11 01:57:51;;;;;;;11.50;7.40;;;;;;;;;;5058170;27;99288;-73
2024/01/11 02:00:18;;;;;;;8.32;6.22;;;;;;;;;;5052549;27;100485;-73
2024/01/11 02:02:45;;;;;;;8.50;6.30;;;;;;;;;;5060160;27;98318;-73
2024/01/11 02:05:12;;;;;;;7.40;5.97;;;;;;;;;;5058890;27;99929;-73
2024/01/11 02:07:39;;;;;;;6.95;6.32;;;;;;;;;;5054330;27;99899;-73
2024/01/11 02:10:07;;;;;;;7.18;6.25;;;;;;;;;;5059583;27;98256;-73
2024/01/11 02:12:35;;;;;;;10.88;7.50;;;;;;;;;;5055459;27;99546;-74
2024/01/11 02:15:03;;;;;;;7.38;6.53;;;;;;;;;;5057065;27;100061;-73
2024/01/11 02:17:30;;;;;;;7.15;6.47;;;;;;;;;;5060010;27;99560;-73
2024/01/11 02:19:57;;;;;;;8.73;6.85;;;;;;;;;;5060405;27;99477;-74
2024/01/11 02:22:35;;;;;;;13.27;9.30;;;;;;;;;;5053819;27;99435;-74
2024/01/11 02:25:02;;;;;;;10.32;5.57;;;;;;;;;;5056102;27;100156;-73
2024/01/11 02:27:28;;;;;;;10.50;5.22;;;;;;;;;;5055570;27;101822;-74
2024/01/11 02:29:55;;;;;;;12.80;6.47;;;;;;;;;;5053567;27;98549;-74
2024/01/11 02:32:21;;;;;;;20.25;8.60;;;;;;;;;;5052844;27;99646;-73
2024/01/11 02:34:48;;;;;;;13.02;8.85;;;;;;;;;;5052789;27;100152;-73
2024/01/11 02:37:15;;;;;;;8.13;6.75;;;;;;;;;;5057336;27;98366;-73
2024/01/11 02:39:41;;;;;;;15.38;9.05;;;;;;;;;;5058328;27;100105;-73
2024/01/11 02:42:08;;;;;;;14.50;8.13;;;;;;;;;;5061672;27;99974;-73
2024/01/11 02:44:34;;;;;;;10.32;8.38;;;;;;;;;;5060157;27;100668;-73
2024/01/11 02:47:01;;;;;;;13.48;7.93;;;;;;;;;;5052911;27;99040;-74
2024/01/11 02:49:27;;;;;;;18.10;8.55;;;;;;;;;;5051840;27;99244;-74
2024/01/11 02:51:53;;;;;;;12.85;6.90;;;;;;;;;;5062898;27;99632;-75
2024/01/11 02:54:20;;;;;;;13.02;8.65;;;;;;;;;;5052890;27;100064;-75
2024/01/11 02:56:46;;;;;;;12.32;8.70;;;;;;;;;;5060481;27;99752;-74
2024/01/11 02:59:13;;;;;;;13.18;9.50;;;;;;;;;;5055890;27;100068;-74
2024/01/11 03:01:39;;;;;;;15.27;10.65;;;;;;;;;;5056636;27;100015;-74
2024/01/11 03:04:06;;;;;;;15.73;8.20;;;;;;;;;;5058929;27;99263;-73
2024/01/11 03:06:32;;;;;;;10.18;7.95;;;;;;;;;;5056709;27;99222;-73
2024/01/11 03:08:59;;;;;;;12.90;10.68;;;;;;;;;;5053702;27;99309;-74
2024/01/11 03:11:26;;;;;;;13.10;9.32;;;;;;;;;;5053427;27;99431;-73
2024/01/11 03:13:52;;;;;;;13.63;8.85;;;;;;;;;;5053509;27;100230;-73
2024/01/11 03:16:19;;;;;;;14.45;9.63;;;;;;;;;;5054219;27;100176;-73
2024/01/11 03:18:45;;;;;;;5.43;4.93;;;;;;;;;;5049926;27;99493;-74
2024/01/11 03:21:12;;;;;;;10.73;9.55;;;;;;;;;;5056135;27;100107;-74
2024/01/11 03:23:38;;;;;;;10.52;8.23;;;;;;;;;;5056311;27;99421;-74
2024/01/11 03:26:11;;;;;;;15.93;10.75;;;;;;;;;;5056610;27;100425;-73
2024/01/11 03:28:38;;;;;;;19.85;11.30;;;;;;;;;;5055799;27;99595;-73
2024/01/11 03:31:04;;;;;;;13.02;9.32;;;;;;;;;;5055352;27;99632;-74
2024/01/11 03:33:31;;;;;;;6.45;5.13;;;;;;;;;;5053522;27;101478;-73
2024/01/11 03:35:58;;;;;;;28.45;12.20;;;;;;;;;;5053209;27;98666;-74
2024/01/11 03:38:24;;;;;;;9.27;7.55;;;;;;;;;;5052101;27;99416;-74
2024/01/11 03:40:51;;;;;;;19.92;12.05;;;;;;;;;;5054736;27;100707;-74
2024/01/11 03:43:18;;;;;;;16.27;12.40;;;;;;;;;;5056973;27;100043;-73
2024/01/11 03:45:44;;;;;;;19.30;9.27;;;;;;;;;;5054286;27;99918;-73
2024/01/11 03:48:11;;;;;;;16.05;10.57;;;;;;;;;;5055894;27;100482;-74
2024/01/11 03:50:38;;;;;;;17.92;10.90;;;;;;;;;;5056502;27;99701;-74
2024/01/11 03:53:04;;;;;;;14.00;10.73;;;;;;;;;;5050624;27;100091;-74
2024/01/11 03:55:31;;;;;;;17.83;11.98;;;;;;;;;;5053031;27;100236;-74
2024/01/11 03:57:57;;;;;;;18.65;11.35;;;;;;;;;;5054885;27;101002;-74
2024/01/11 04:00:23;;;;;;;13.05;9.00;;;;;;;;;;5052900;27;99878;-74
2024/01/11 04:02:50;;;;;;;6.38;5.75;;;;;;;;;;5055396;27;99239;-74
2024/01/11 04:05:16;;;;;;;16.67;10.93;;;;;;;;;;5055688;27;99325;-75
2024/01/11 04:07:43;;;;;;;13.38;10.70;;;;;;;;;;5057333;27;100420;-74
2024/01/11 04:10:09;;;;;;;12.13;9.63;;;;;;;;;;5053171;27;99456;-74
2024/01/11 04:12:37;;;;;;;24.67;12.90;;;;;;;;;;5050802;27;99971;-73
2024/01/11 04:15:03;;;;;;;13.95;9.25;;;;;;;;;;5053297;27;98360;-74
2024/01/11 04:17:30;;;;;;;19.90;12.93;;;;;;;;;;5058177;27;100428;-74
2024/01/11 04:19:56;;;;;;;19.08;11.07;;;;;;;;;;5052298;27;99841;-75
2024/01/11 04:22:23;;;;;;;17.10;10.40;;;;;;;;;;5054643;27;99003;-75
2024/01/11 04:24:49;;;;;;;8.50;7.63;;;;;;;;;;5053462;27;99550;-75
2024/01/11 04:27:16;;;;;;;17.48;11.27;;;;;;;;;;5051459;27;100495;-75
2024/01/11 04:29:42;;;;;;;15.80;11.20;;;;;;;;;;5062012;27;99950;-73
2024/01/11 04:32:09;;;;;;;18.75;9.20;;;;;;;;;;5054028;27;100011;-73
2024/01/11 04:34:35;;;;;;;10.73;8.05;;;;;;;;;;5053236;27;99797;-73
2024/01/11 04:37:02;;;;;;;8.05;6.13;;;;;;;;;;5051024;27;99440;-74
2024/01/11 04:39:28;;;;;;;13.57;10.02;;;;;;;;;;5051767;27;99935;-74
2024/01/11 04:41:55;;;;;;;11.52;7.90;;;;;;;;;;5052436;27;100170;-74
2024/01/11 04:44:21;;;;;;;15.05;10.20;;;;;;;;;;5053033;27;99756;-74
2024/01/11 04:46:51;;;;;;;14.88;7.45;;;;;;;;;;5056534;27;99869;-74
2024/01/11 04:49:18;;;;;;;30.70;16.05;;;;;;;;;;5050217;27;99878;-73
2024/01/11 04:51:44;;;;;;;11.20;7.85;;;;;;;;;;5053414;27;99785;-74
2024/01/11 04:54:11;;;;;;;16.08;12.70;;;;;;;;;;5055994;27;98791;-74
2024/01/11 04:56:37;;;;;;;19.20;12.88;;;;;;;;;;5052478;27;99198;-74
2024/01/11 04:59:04;;;;;;;8.25;7.28;;;;;;;;;;5054289;27;100409;-73
2024/01/11 05:01:30;;;;;;;17.15;12.65;;;;;;;;;;5051394;27;99354;-74
2024/01/11 05:03:57;;;;;;;12.73;9.23;;;;;;;;;;5055143;27;99576;-74
2024/01/11 05:06:24;;;;;;;9.45;5.90;;;;;;;;;;5049330;27;100059;-74
2024/01/11 05:08:54;;;;;;;16.08;11.05;;;;;;;;;;5055639;27;98614;-74
2024/01/11 05:11:22;;;;;;;13.68;11.05;;;;;;;;;;5049757;27;100888;-75
2024/01/11 05:13:48;;;;;;;19.40;11.00;;;;;;;;;;5058597;27;99855;-74
2024/01/11 05:16:26;;;;;;;20.40;12.43;;;;;;;;;;5048614;27;99332;-74
2024/01/11 05:18:56;;;;;;;13.10;11.07;;;;;;;;;;5057823;27;100727;-73
2024/01/11 05:21:23;;;;;;;21.02;12.88;;;;;;;;;;5059576;27;99306;-75
2024/01/11 05:23:50;;;;;;;19.42;13.90;;;;;;;;;;5054508;27;99563;-74
2024/01/11 05:26:18;;;;;;;17.83;9.77;;;;;;;;;;5052389;27;99973;-74
2024/01/11 05:28:44;;;;;;;15.88;11.73;;;;;;;;;;5052868;27;99771;-74
2024/01/11 05:31:12;;;;;;;17.73;13.05;;;;;;;;;;5061437;27;99611;-74
2024/01/11 05:33:39;;;;;;;13.80;10.65;;;;;;;;;;5056451;27;98895;-74
2024/01/11 05:36:06;;;;;;;18.10;11.27;;;;;;;;;;5056323;27;98380;-74
2024/01/11 05:38:32;;;;;;;28.85;15.20;;;;;;;;;;5049012;27;99981;-74
2024/01/11 05:40:59;;;;;;;17.92;11.90;;;;;;;;;;5051060;27;98529;-74
2024/01/11 05:43:26;;;;;;;17.35;11.10;;;;;;;;;;5053176;27;99765;-74
2024/01/11 05:45:52;;;;;;;26.42;15.23;;;;;;;;;;5050934;27;100296;-74
2024/01/11 05:48:19;;;;;;;22.48;15.07;;;;;;;;;;5051287;27;98229;-74
2024/01/11 05:50:45;;;;;;;25.35;14.48;;;;;;;;;;5056577;27;99747;-75
2024/01/11 05:53:12;;;;;;;20.75;12.73;;;;;;;;;;5052066;27;99951;-73
2024/01/11 05:55:40;;;;;;;19.65;13.63;;;;;;;;;;5057266;27;99725;-73
2024/01/11 05:58:07;;;;;;;24.52;14.93;;;;;;;;;;5058818;27;99890;-73
2024/01/11 06:00:33;;;;;;;21.33;11.70;;;;;;;;;;5050096;27;99445;-74
2024/01/11 06:03:00;;;;;;;9.52;7.22;;;;;;;;;;5053541;27;99488;-73
2024/01/11 06:05:26;;;;;;;9.93;8.15;;;;;;;;;;5051341;27;99906;-73
2024/01/11 06:07:53;;;;;;;15.10;8.57;;;;;;;;;;5058301;27;99526;-71
2024/01/11 06:10:20;;;;;;;17.10;11.82;;;;;;;;;;5054277;27;99929;-73
2024/01/11 06:12:46;;;;;;;15.88;12.00;;;;;;;;;;5055127;27;99902;-73
2024/01/11 06:15:13;;;;;;;20.33;12.82;;;;;;;;;;5054312;27;100290;-75
2024/01/11 06:17:40;;;;;;;16.40;10.38;;;;;;;;;;5059760;27;99380;-74
2024/01/11 06:20:07;;;;;;;21.45;13.13;;;;;;;;;;5055022;27;98218;-75
2024/01/11 06:22:33;;;;;;;12.90;9.07;;;;;;;;;;5059312;27;99855;-74
2024/01/11 06:25:00;;;;;;;37.53;21.08;;;;;;;;;;5056713;27;100794;-74
2024/01/11 06:27:26;;;;;;;18.45;12.98;;;;;;;;;;5056533;27;100142;-73
2024/01/11 06:29:53;;;;;;;30.63;16.13;;;;;;;;;;5062491;27;99432;-74
2024/01/11 06:32:19;;;;;;;18.15;10.52;;;;;;;;;;5062454;27;99988;-74
2024/01/11 06:34:47;;;;;;;17.42;11.98;;;;;;;;;;5053264;27;98811;-74
2024/01/11 06:37:13;;;;;;;14.00;8.82;;;;;;;;;;5056085;27;99597;-74
2024/01/11 06:39:40;;;;;;;15.63;11.38;;;;;;;;;;5062152;27;100114;-74
2024/01/11 06:42:06;;;;;;;18.17;12.20;;;;;;;;;;5054039;27;99614;-74
2024/01/11 06:44:33;;;;;;;21.30;15.60;;;;;;;;;;5059952;27;100182;-75
2024/01/11 06:47:01;;;;;;;28.50;17.45;;;;;;;;;;5057588;27;101333;-75
2024/01/11 06:49:28;;;;;;;27.55;15.32;;;;;;;;;;5060085;27;99702;-73
2024/01/11 06:51:54;;;;;;;8.52;7.30;;;;;;;;;;5051628;27;99796;-74
2024/01/11 06:54:21;;;;;;;18.80;14.05;;;;;;;;;;5057679;27;99237;-74
2024/01/11 06:56:48;;;;;;;20.83;13.30;;;;;;;;;;5056077;27;99821;-73
2024/01/11 06:59:14;;;;;;;20.67;15.45;;;;;;;;;;5055089;27;99404;-74
2024/01/11 07:01:44;;;;;;;17.92;12.98;;;;;;;;;;5059862;27;98626;-74
2024/01/11 07:04:11;;;;;;;18.52;13.85;;;;;;;;;;5058447;27;100536;-75
2024/01/11 07:06:38;;;;;;;18.90;13.57;;;;;;;;;;5055377;27;98880;-75
2024/01/11 07:09:05;;;;;;;15.77;11.95;;;;;;;;;;5057973;27;99485;-76
2024/01/11 07:11:32;;;;;;;22.85;14.40;;;;;;;;;;5056944;27;100170;-75
2024/01/11 07:13:58;;;;;;;25.45;15.40;;;;;;;;;;5052627;27;99400;-76
2024/01/11 07:16:25;;;;;;;24.08;14.20;;;;;;;;;;5056083;27;100345;-76
2024/01/11 07:18:51;;;;;;;27.55;17.73;;;;;;;;;;5056985;27;100878;-76
2024/01/11 07:21:29;;;;;;;28.75;14.70;;;;;;;;;;5061102;27;100267;-76
2024/01/11 07:23:56;;;;;;;24.77;16.58;;;;;;;;;;5060611;27;99356;-74
2024/01/11 07:26:23;;;;;;;28.48;15.73;;;;;;;;;;5062583;27;98296;-75
2024/01/11 07:28:50;;;;;;;30.10;16.63;;;;;;;;;;5049550;27;99681;-75
2024/01/11 07:31:17;;;;;;;25.08;15.65;;;;;;;;;;5048206;27;99934;-76
2024/01/11 07:33:44;;;;;;;26.13;16.50;;;;;;;;;;5049729;27;98199;-74
2024/01/11 07:36:11;;;;;;;30.85;16.73;;;;;;;;;;5049781;27;99679;-76
2024/01/11 07:38:38;;;;;;;26.70;16.58;;;;;;;;;;5063764;27;99832;-76
2024/01/11 07:41:05;;;;;;;45.05;15.32;;;;;;;;;;5063292;27;98211;-76
2024/01/11 07:43:35;;;;;;;31.10;19.33;;;;;;;;;;5049376;27;99363;-74
2024/01/11 07:46:14;;;;;;;45.45;20.55;;;;;;;;;;5052553;27;99995;-75
2024/01/11 07:48:41;;;;;;;29.42;18.15;;;;;;;;;;5049972;27;100796;-76
2024/01/11 07:51:07;;;;;;;22.38;15.15;;;;;;;;;;5052651;27;100333;-75
2024/01/11 07:53:34;;;;;;;26.73;15.02;;;;;;;;;;5055635;27;98178;-75
2024/01/11 07:56:01;;;;;;;24.00;18.02;;;;;;;;;;5051404;27;100030;-75
2024/01/11 07:58:27;;;;;;;28.95;15.52;;;;;;;;;;5052660;27;100322;-75
2024/01/11 08:00:54;;;;;;;27.02;15.15;;;;;;;;;;5049099;27;99022;-75
2024/01/11 08:03:21;;;;;;;24.00;15.85;;;;;;;;;;5056639;27;99591;-74
2024/01/11 08:05:50;;;;;;;21.45;15.55;;;;;;;;;;5052912;27;100869;-75
2024/01/11 08:08:17;;;;;;;23.30;14.35;;;;;;;;;;5051899;27;98705;-74
2024/01/11 08:10:43;;;;;;;26.55;15.68;;;;;;;;;;5047604;27;99966;-73
2024/01/11 08:13:09;;;;;;;23.48;14.95;;;;;;;;;;5052750;27;98237;-74
2024/01/11 08:15:38;;;;;;;26.27;15.15;;;;;;;;;;5049912;27;99250;-74
2024/01/11 08:18:04;;;;;;;16.73;13.68;;;;;;;;;;5051449;27;100086;-73
2024/01/11 08:20:32;;;;;;;28.00;16.42;;;;;;;;;;5049962;27;98862;-74
2024/01/11 08:22:59;;;;;;;29.13;16.90;;;;;;;;;;5045241;27;99823;-74
2024/01/11 08:25:25;;;;;;;26.15;17.13;;;;;;;;;;5050166;27;99999;-74
2024/01/11 08:27:52;;;;;;;28.85;16.27;;;;;;;;;;5056365;27;99248;-74
2024/01/11 08:30:18;;;;;;;42.42;20.63;;;;;;;;;;5051483;27;100538;-75
2024/01/11 08:32:45;;;;;;;37.60;18.25;;;;;;;;;;5051458;27;99324;-75
2024/01/11 08:35:12;;;;;;;48.25;23.58;;;;;;;;;;5049873;27;99824;-74
2024/01/11 08:37:39;;;;;;;34.25;21.00;;;;;;;;;;5052638;27;100348;-74
2024/01/11 08:40:06;;;;;;;43.42;19.02;;;;;;;;;;5050761;27;98647;-74
2024/01/11 08:42:32;;;;;;;32.55;17.67;;;;;;;;;;5050498;27;99506;-75
2024/01/11 08:45:03;;;;;;;38.38;17.20;;;;;;;;;;5048522;27;99923;-74
2024/01/11 08:47:30;;;;;;;29.33;16.92;;;;;;;;;;5042552;27;100836;-75
2024/01/11 08:49:56;;;;;;;22.52;15.05;;;;;;;;;;5052283;27;99614;-75
2024/01/11 08:52:23;;;;;;;25.55;16.20;;;;;;;;;;5049528;27;99931;-74
2024/01/11 08:54:49;;;;;;;25.75;16.05;;;;;;;;;;5053454;27;99002;-74
2024/01/11 08:57:17;;;;;;;32.67;18.90;;;;;;;;;;5055638;27;100050;-75
2024/01/11 08:59:44;;;;;;;19.95;15.73;;;;;;;;;;5058495;27;100727;-74
2024/01/11 09:02:10;;;;;;;25.25;15.55;;;;;;;;;;5051669;27;100356;-75
2024/01/11 09:04:44;;;;;;;25.95;16.52;;;;;;;;;;5057877;27;99956;-75
2024/01/11 09:07:10;;;;;;;29.20;16.20;;;;;;;;;;5063317;27;99959;-75
2024/01/11 09:09:37;;;;;;;26.70;14.73;;;;;;;;;;5057431;27;100280;-75
2024/01/11 09:12:16;;;;;;;21.10;14.63;;;;;;;;;;5064989;27;100037;-75
2024/01/11 09:14:42;;;;;;;21.98;12.77;;;;;;;;;;5045376;27;98480;-74
2024/01/11 09:17:09;;;;;;;22.10;14.40;;;;;;;;;;5053608;27;99962;-75
2024/01/11 09:19:37;;;;;;;21.00;12.82;;;;;;;;;;5053840;27;100230;-74
2024/01/11 09:22:04;;;;;;;22.38;14.85;;;;;;;;;;5046573;27;100995;-74
2024/01/11 09:24:30;;;;;;;14.00;9.30;;;;;;;;;;5043647;27;100170;-75
2024/01/11 09:27:04;;;;;;;20.52;10.15;;;;;;;;;;5046593;27;99048;-74
2024/01/11 09:29:30;;;;;;;21.27;14.30;;;;;;;;;;5048534;27;100047;-74
2024/01/11 09:31:57;;;;;;;22.42;13.68;;;;;;;;;;5047842;27;100410;-74
2024/01/11 09:34:23;;;;;;;24.70;13.35;;;;;;;;;;5051780;27;100320;-74
2024/01/11 09:36:50;;;;;;;16.08;9.18;;;;;;;;;;5044565;27;100044;-75
2024/01/11 09:39:16;;;;;;;21.60;12.10;;;;;;;;;;5046436;27;100356;-74
2024/01/11 09:41:49;;;;;;;29.25;14.70;;;;;;;;;;5049072;27;99958;-75
2024/01/11 09:44:15;;;;;;;29.75;14.18;;;;;;;;;;5050637;27;99982;-75
2024/01/11 09:46:42;;;;;;;38.55;16.33;;;;;;;;;;5047940;27;101643;-75
2024/01/11 09:49:09;;;;;;;18.27;11.63;;;;;;;;;;5048551;27;100212;-75
2024/01/11 09:51:37;;;;;;;25.40;12.43;;;;;;;;;;5050702;27;100300;-75
2024/01/11 09:54:04;;;;;;;29.60;14.13;;;;;;;;;;5051729;27;100923;-74
2024/01/11 09:56:31;;;;;;;22.73;13.55;;;;;;;;;;5055684;27;100323;-73
2024/01/11 09:58:58;;;;;;;9.98;7.97;;;;;;;;;;5053623;27;100014;-73
2024/01/11 10:01:25;;;;;;;31.90;14.25;;;;;;;;;;5053717;27;100132;-74
2024/01/11 10:03:52;;;;;;;30.15;15.15;;;;;;;;;;5052725;27;99991;-74
2024/01/11 10:06:19;;;;;;;29.23;14.45;;;;;;;;;;5049509;27;99371;-74
2024/01/11 10:08:46;;;;;;;22.65;13.98;;;;;;;;;;5047722;27;100647;-74
2024/01/11 10:11:12;;;;;;;29.23;12.02;;;;;;;;;;5046355;27;100166;-74
2024/01/11 10:13:39;;;;;;;22.50;13.82;;;;;;;;;;5063446;27;99696;-73
2024/01/11 10:16:09;;;;;;;20.05;12.57;;;;;;;;;;5060744;27;99960;-74
2024/01/11 10:18:36;;;;;;;22.77;13.68;;;;;;;;;;5056933;27;98550;-74
2024/01/11 10:21:03;;;;;;;21.20;12.35;;;;;;;;;;5066286;27;100447;-74
2024/01/11 10:23:33;;;;;;;27.73;13.25;;;;;;;;;;5057188;27;100145;-74
2024/01/11 10:25:59;;;;;;;30.75;15.07;;;;;;;;;;5047922;27;100136;-74
2024/01/11 10:28:26;;;;;;;27.27;14.60;;;;;;;;;;5048502;27;99783;-74
2024/01/11 10:30:54;;;;;;;38.28;15.75;;;;;;;;;;5048404;27;99887;-74
2024/01/11 10:33:21;;;;;;;25.98;13.57;;;;;;;;;;5047352;27;100467;-74
2024/01/11 10:35:51;;;;;;;35.42;14.70;;;;;;;;;;5048297;27;100981;-74
2024/01/11 10:38:17;;;;;;;26.67;12.95;;;;;;;;;;5049796;27;99877;-75
2024/01/11 10:40:44;;;;;;;31.10;14.48;;;;;;;;;;5047862;27;100419;-77
2024/01/11 10:43:11;;;;;;;36.05;16.77;;;;;;;;;;5047807;27;100008;-75
2024/01/11 10:45:38;;;;;;;17.90;11.70;;;;;;;;;;5048007;27;100131;-75
2024/01/11 10:48:15;;;;;;;28.88;14.95;;;;;;;;;;5048796;27;100239;-75
2024/01/11 10:50:45;;;;;;;27.23;13.00;;;;;;;;;;5054407;27;99886;-75
2024/01/11 10:53:19;;;;;;;25.05;13.57;;;;;;;;;;5064679;27;100805;-76
2024/01/11 10:55:45;;;;;;;34.67;15.63;;;;;;;;;;5067667;27;100241;-76
2024/01/11 10:58:13;;;;;;;21.83;14.93;;;;;;;;;;5068589;27;100221;-75
2024/01/11 11:00:40;;;;;;;35.15;16.15;;;;;;;;;;5071210;27;99950;-75
2024/01/11 11:03:06;;;;;;;26.50;13.57;;;;;;;;;;5047765;27;99993;-75
2024/01/11 11:05:35;;;;;;;29.08;13.13;;;;;;;;;;5047682;27;100148;-76
2024/01/11 11:08:02;;;;;;;29.20;13.93;;;;;;;;;;5050088;27;101989;-74
2024/01/11 11:10:30;;;;;;;29.05;13.57;;;;;;;;;;5047137;27;100464;-76
2024/01/11 11:12:59;;;;;;;25.48;12.80;;;;;;;;;;5052647;27;100128;-75
2024/01/11 11:15:26;;;;;;;36.47;15.35;;;;;;;;;;5049799;27;100140;-75
2024/01/11 11:17:53;;;;;;;18.88;12.60;;;;;;;;;;5067423;27;100180;-76
2024/01/11 11:20:20;;;;;;;26.05;13.52;;;;;;;;;;5067085;27;99150;-75
2024/01/11 11:23:05;;;;;;;24.35;13.15;;;;;;;;;;5070495;27;99414;-76
2024/01/11 11:25:34;;;;;;;28.98;13.55;;;;;;;;;;5067567;27;100043;-76
2024/01/11 11:28:06;;;;;;;26.65;13.85;;;;;;;;;;5049571;27;100227;-75
2024/01/11 11:30:33;;;;;;;25.80;12.57;;;;;;;;;;5045914;27;100021;-75
2024/01/11 11:33:30;;;;;;;19.95;13.68;;;;;;;;;;5047629;27;100621;-74
2024/01/11 11:35:58;;;;;;;21.00;12.35;;;;;;;;;;5037960;27;100632;-76
2024/01/11 11:38:31;;;;;;;25.67;13.50;;;;;;;;;;5046549;27;99953;-75
2024/01/11 11:40:58;;;;;;;21.98;14.13;;;;;;;;;;5046891;27;99944;-75
2024/01/11 11:43:28;;;;;;;29.20;13.27;;;;;;;;;;5048048;27;99724;-75
2024/01/11 11:45:56;;;;;;;24.80;13.02;;;;;;;;;;5050261;27;99265;-75
2024/01/11 11:48:31;;;;;;;27.03;14.10;;;;;;;;;;5047276;27;100414;-75
2024/01/11 11:51:01;;;;;;;22.88;13.73;;;;;;;;;;5045422;27;99891;-75
2024/01/11 11:53:32;;;;;;;27.73;14.38;;;;;;;;;;5047053;27;100664;-76
2024/01/11 11:55:59;;;;;;;27.23;13.38;;;;;;;;;;5046725;27;100544;-73
2024/01/11 11:58:27;;;;;;;26.10;13.27;;;;;;;;;;5046069;27;99769;-76
2024/01/11 12:00:54;;;;;;;18.48;12.20;;;;;;;;;;5054909;27;99069;-76
2024/01/11 12:03:25;;;;;;;28.77;13.85;;;;;;;;;;5067376;27;101350;-75
2024/01/11 12:05:51;;;;;;;25.20;13.30;;;;;;;;;;5065418;27;99794;-75
2024/01/11 12:08:18;;;;;;;21.55;14.23;;;;;;;;;;5070742;27;100045;-74
2024/01/11 12:10:44;;;;;;;15.43;11.02;;;;;;;;;;5058805;27;100022;-75
2024/01/11 12:13:11;;;;;;;26.33;11.45;;;;;;;;;;5065707;27;99148;-74
2024/01/11 12:15:37;;;;;;;22.20;12.45;;;;;;;;;;5065968;27;100903;-74
2024/01/11 12:18:04;;;;;;;28.98;13.02;;;;;;;;;;5065839;27;99272;-74
2024/01/11 12:20:31;;;;;;;27.92;12.25;;;;;;;;;;5060192;27;100738;-76
2024/01/11 12:22:58;;;;;;;19.30;11.90;;;;;;;;;;5047171;27;100167;-76
2024/01/11 12:25:24;;;;;;;22.65;12.95;;;;;;;;;;5048140;27;100806;-75
2024/01/11 12:27:51;;;;;;;21.10;11.77;;;;;;;;;;5051764;27;100472;-76
2024/01/11 12:30:18;;;;;;;18.48;11.35;;;;;;;;;;5048273;27;99829;-76
2024/01/11 12:32:44;;;;;;;21.45;11.82;;;;;;;;;;5051222;27;98933;-76
2024/01/11 12:35:13;;;;;;;28.05;12.43;;;;;;;;;;5046339;27;100251;-76
2024/01/11 12:37:39;;;;;;;21.30;11.90;;;;;;;;;;5051576;27;100068;-76
2024/01/11 12:40:06;;;;;;;21.70;11.45;;;;;;;;;;5043495;27;100887;-76
2024/01/11 12:42:34;;;;;;;21.70;12.70;;;;;;;;;;5044592;27;100191;-76
2024/01/11 12:45:01;;;;;;;20.65;11.93;;;;;;;;;;5046563;27;99983;-76
2024/01/11 12:47:27;;;;;;;20.58;11.63;;;;;;;;;;5050274;27;102088;-75
2024/01/11 12:49:54;;;;;;;22.52;11.85;;;;;;;;;;5050604;27;100378;-76
2024/01/11 12:52:21;;;;;;;17.80;10.45;;;;;;;;;;5050830;27;100678;-76
2024/01/11 12:54:51;;;;;;;20.85;11.98;;;;;;;;;;5051127;27;100456;-76
2024/01/11 12:57:21;;;;;;;20.33;10.98;;;;;;;;;;5056745;27;100090;-77
2024/01/11 12:59:48;;;;;;;17.17;11.18;;;;;;;;;;5061139;27;99244;-75
2024/01/11 13:02:15;;;;;;;24.80;13.45;;;;;;;;;;5048641;27;99442;-76
2024/01/11 13:04:46;;;;;;;18.38;11.43;;;;;;;;;;5050760;27;99463;-77
2024/01/11 13:07:12;;;;;;;16.67;11.27;;;;;;;;;;5063238;27;100858;-73
2024/01/11 13:09:38;;;;;;;19.13;10.38;;;;;;;;;;5053458;27;100500;-76
2024/01/11 13:12:05;;;;;;;19.83;10.77;;;;;;;;;;5069376;27;99948;-77
2024/01/11 13:14:31;;;;;;;16.20;10.70;;;;;;;;;;5066118;27;100206;-77
2024/01/11 13:16:58;;;;;;;17.67;11.95;;;;;;;;;;5066864;27;99919;-78
2024/01/11 13:19:24;;;;;;;14.60;9.65;;;;;;;;;;5069996;27;100044;-74
2024/01/11 13:21:53;;;;;;;29.25;11.02;;;;;;;;;;5067197;27;99606;-76
2024/01/11 13:24:19;;;;;;;15.38;10.77;;;;;;;;;;5048211;27;100049;-77
2024/01/11 13:26:47;;;;;;;18.98;12.30;;;;;;;;;;5067567;27;100064;-76
2024/01/11 13:29:14;;;;;;;17.88;11.00;;;;;;;;;;5068143;27;101008;-76
2024/01/11 13:31:41;;;;;;;17.27;11.70;;;;;;;;;;5054493;27;100004;-77
2024/01/11 13:34:07;;;;;;;16.35;11.20;;;;;;;;;;5052327;27;99891;-77
2024/01/11 13:36:34;;;;;;;22.70;11.98;;;;;;;;;;5050393;27;100586;-75
2024/01/11 13:39:00;;;;;;;16.13;10.90;;;;;;;;;;5058602;27;100280;-75
2024/01/11 13:41:27;;;;;;;14.23;9.93;;;;;;;;;;5061607;27;100317;-78
2024/01/11 13:43:54;;;;;;;14.68;10.68;;;;;;;;;;5058076;27;99828;-75
2024/01/11 13:46:21;;;;;;;16.77;10.00;;;;;;;;;;5057812;27;99970;-74
2024/01/11 13:48:47;;;;;;;16.80;10.88;;;;;;;;;;5058874;27;100171;-77
2024/01/11 13:51:15;;;;;;;22.58;11.45;;;;;;;;;;5048012;27;99925;-75
2024/01/11 13:53:42;;;;;;;14.15;10.40;;;;;;;;;;5065674;27;100114;-76
2024/01/11 13:56:10;;;;;;;13.18;9.73;;;;;;;;;;5072155;27;100880;-77
2024/01/11 13:58:36;;;;;;;16.25;10.65;;;;;;;;;;5068546;27;100234;-78
2024/01/11 14:01:03;;;;;;;24.75;11.25;;;;;;;;;;5069124;27;100260;-78
2024/01/11 14:03:30;;;;;;;19.42;10.70;;;;;;;;;;5069195;27;100075;-78
2024/01/11 14:05:57;;;;;;;17.58;10.55;;;;;;;;;;5068077;27;100188;-77
2024/01/11 14:08:24;;;;;;;31.55;11.52;;;;;;;;;;5068985;27;100077;-77
2024/01/11 14:10:53;;;;;;;16.20;10.48;;;;;;;;;;5069356;27;100265;-76
2024/01/11 14:13:19;;;;;;;27.40;11.30;;;;;;;;;;5067907;27;99598;-76
2024/01/11 14:15:48;;;;;;;17.88;10.88;;;;;;;;;;5068702;27;100314;-75
2024/01/11 14:18:14;;;;;;;14.35;9.57;;;;;;;;;;5064326;27;99963;-75